Terminal Aerodrome Forecast
Issued by NWS

Home | Current Version | Previous Version | Text Only | Print | Product List | Glossary On
Versions: 1 2 3 4 5 6 7 8 9 10 11 12
000
FTUS41 KLWX 171100
TAFMTN
TAF
KMTN 171123Z 1712/1812 04004KT P6SM FEW050 FEW200
     FM171600 13005KT P6SM FEW050
     FM172300 VRB03KT P6SM SCT050=

USA.gov is the U.S. government's official web portal to all federal, state and local government web resources and services.